Time;durP1;ratioP1;P1;durP2;ratioP2;P2;SDS_P1;SDS_P2;PMS_P1;PMS_P2;Temp;Humidity;BMP_temperature;BMP_pressure;BME280_temperature;BME280_humidity;BME280_pressure;Samples;Min_cycle;Max_cycle;Signal;HPM_P1;HPM_P2
2022/08/20 00:01:50;;;;;;;8.02;1.65;;;;;;;15.09;92.44;100245.25;5003128;28;20049;-82
2022/08/20 00:04:16;;;;;;;8.35;1.67;;;;;;;15.08;92.54;100234.78;5026877;28;20029;-80
2022/08/20 00:06:42;;;;;;;9.98;2.28;;;;;;;15.08;92.35;100234.78;5014644;28;20133;-79
2022/08/20 00:09:07;;;;;;;9.75;1.75;;;;;;;15.07;92.32;100244.59;4998730;28;20041;-81
2022/08/20 00:11:34;;;;;;;10.13;2.10;;;;;;;15.05;92.50;100243.13;4985981;28;20062;-80
2022/08/20 00:14:02;;;;;;;8.68;2.05;;;;;;;15.03;92.76;100245.13;5023061;28;20030;-81
2022/08/20 00:16:32;;;;;;;6.65;1.35;;;;;;;15.03;92.89;100235.34;4986485;28;20042;-79
2022/08/20 00:18:59;;;;;;;8.68;1.70;;;;;;;15.02;93.00;100232.84;5009095;28;20392;-82
2022/08/20 00:21:25;;;;;;;8.82;2.30;;;;;;;15.02;93.14;100232.84;4967494;28;20095;-80
2022/08/20 00:23:52;;;;;;;7.55;1.48;;;;;;;15.02;93.17;100220.34;5020780;28;20109;-80
2022/08/20 00:26:18;;;;;;;5.18;1.20;;;;;;;15.02;93.23;100223.00;4988749;28;20029;-81
2022/08/20 00:28:45;;;;;;;6.18;1.40;;;;;;;15.05;93.40;100220.00;5003503;28;20072;-79
2022/08/20 00:31:13;;;;;;;5.03;1.50;;;;;;;15.07;93.25;100214.47;4995137;28;20065;-81
2022/08/20 00:33:39;;;;;;;7.75;1.45;;;;;;;15.07;93.32;100210.00;5030054;28;20399;-81
2022/08/20 00:36:08;;;;;;;6.07;1.27;;;;;;;15.09;93.39;100215.97;5013499;28;20044;-82
2022/08/20 00:38:36;;;;;;;8.90;1.55;;;;;;;15.10;93.44;100209.63;4999432;28;20394;-82
2022/08/20 00:41:03;;;;;;;5.57;1.52;;;;;;;15.11;93.58;100210.47;5002630;28;20046;-82
2022/08/20 00:43:44;;;;;;;12.15;1.40;;;;;;;15.10;93.21;100204.31;4981363;28;20041;-84
2022/08/20 00:46:14;;;;;;;7.05;1.50;;;;;;;15.12;93.66;100202.31;4993808;28;20038;-81
2022/08/20 00:48:42;;;;;;;6.95;1.33;;;;;;;15.12;93.74;100196.97;5010649;28;20038;-83
2022/08/20 00:51:08;;;;;;;10.25;1.58;;;;;;;15.13;93.82;100201.28;5012277;28;20041;-81
2022/08/20 00:53:36;;;;;;;5.85;1.52;;;;;;;15.14;93.82;100188.81;4996333;28;20049;-81
2022/08/20 00:56:04;;;;;;;4.68;1.10;;;;;;;15.16;93.77;100184.13;5021659;28;20022;-79
2022/08/20 00:58:31;;;;;;;7.47;1.40;;;;;;;15.13;93.72;100179.16;4995259;28;20489;-80
2022/08/20 01:00:58;;;;;;;2.70;1.15;;;;;;;15.13;93.77;100185.31;4981626;28;20034;-81
2022/08/20 01:03:24;;;;;;;8.00;1.30;;;;;;;15.13;93.79;100180.00;5021299;28;20045;-82
2022/08/20 01:05:51;;;;;;;5.57;1.27;;;;;;;15.15;93.82;100181.63;5015777;28;20468;-82
2022/08/20 01:08:19;;;;;;;6.45;1.13;;;;;;;15.14;94.00;100172.84;5012412;28;20030;-81
2022/08/20 01:10:48;;;;;;;8.38;1.42;;;;;;;15.15;93.89;100174.50;5014596;28;20046;-80
2022/08/20 01:13:22;;;;;;;5.30;1.33;;;;;;;15.16;93.90;100178.78;5016818;28;20045;-80
2022/08/20 01:15:52;;;;;;;8.20;1.77;;;;;;;15.17;93.96;100172.47;4979146;28;20026;-81
2022/08/20 01:18:24;;;;;;;4.32;1.25;;;;;;;15.19;93.79;100173.13;4990822;28;20103;-83
2022/08/20 01:21:03;;;;;;;6.18;1.20;;;;;;;15.16;93.87;100176.13;4995593;28;20042;-79
2022/08/20 01:23:37;;;;;;;6.05;1.27;;;;;;;15.16;93.96;100181.47;5021327;28;20052;-82
2022/08/20 01:26:08;;;;;;;4.85;1.10;;;;;;;15.15;94.22;100174.50;4974049;28;20088;-80
2022/08/20 01:28:45;;;;;;;8.23;1.55;;;;;;;15.11;94.54;100175.88;5011957;28;20050;-81
2022/08/20 01:31:15;;;;;;;7.38;1.70;;;;;;;15.06;94.80;100168.44;5011698;28;20121;-81
2022/08/20 01:33:41;;;;;;;8.00;1.55;;;;;;;15.09;94.99;100177.88;5001384;28;20506;-80
2022/08/20 01:36:09;;;;;;;4.47;1.20;;;;;;;15.07;95.25;100171.91;4995414;28;20033;-81
2022/08/20 01:38:35;;;;;;;9.10;1.30;;;;;;;15.07;95.34;100172.72;5005775;28;20483;-80
2022/08/20 01:41:32;;;;;;;4.30;1.20;;;;;;;15.06;95.37;100168.44;4994108;28;20550;-81
2022/08/20 01:43:58;;;;;;;6.40;1.60;;;;;;;15.04;95.76;100173.09;4982968;28;20057;-83
2022/08/20 01:46:37;;;;;;;9.30;1.75;;;;;;;15.06;95.56;100179.06;4995713;28;20041;-80
2022/08/20 01:49:14;;;;;;;4.00;1.10;;;;;;;15.08;95.55;100173.56;4997091;28;20097;-81
2022/08/20 01:51:41;;;;;;;7.63;1.83;;;;;;;15.06;95.65;100170.25;4999768;28;20107;-79
2022/08/20 01:54:07;;;;;;;8.90;1.10;;;;;;;15.08;95.57;100165.59;5015383;28;20514;-80
2022/08/20 01:56:34;;;;;;;7.13;1.65;;;;;;;15.08;95.62;100160.25;4959898;28;20516;-80
2022/08/20 01:59:06;;;;;;;9.02;1.70;;;;;;;15.12;95.49;100173.03;4990047;28;20583;-80
2022/08/20 02:01:41;;;;;;;11.57;2.05;;;;;;;15.08;95.28;100160.25;5018841;28;20383;-82
2022/08/20 02:04:09;;;;;;;9.40;2.30;;;;;;;15.04;95.54;100157.13;4994343;28;20439;-80
2022/08/20 02:06:39;;;;;;;10.93;1.92;;;;;;;15.03;95.63;100163.47;4994168;28;20080;-81
2022/08/20 02:09:07;;;;;;;16.23;2.67;;;;;;;15.03;95.47;100166.13;4973215;28;20033;-80
2022/08/20 02:11:34;;;;;;;11.55;2.28;;;;;;;15.00;95.40;100155.84;5028002;28;20519;-84
2022/08/20 02:14:00;;;;;;;12.38;2.38;;;;;;;14.98;95.35;100157.84;5013194;28;20040;-80
2022/08/20 02:16:32;;;;;;;16.23;2.63;;;;;;;14.98;95.16;100156.03;4976901;28;20035;-80
2022/08/20 02:19:08;;;;;;;15.82;2.60;;;;;;;14.97;95.43;100161.53;4992388;28;20030;-82
2022/08/20 02:21:35;;;;;;;13.25;2.50;;;;;;;14.93;95.24;100150.41;4993500;28;20038;-79
2022/08/20 02:24:03;;;;;;;13.30;2.83;;;;;;;14.94;95.18;100152.06;5004496;28;20038;-82
2022/08/20 02:26:28;;;;;;;9.18;1.92;;;;;;;14.95;95.03;100158.22;4957849;28;20030;-82
2022/08/20 02:28:55;;;;;;;14.02;2.40;;;;;;;14.98;94.91;100155.19;4999950;28;20508;-81
2022/08/20 02:31:23;;;;;;;12.10;2.65;;;;;;;15.03;94.76;100152.81;4979652;28;20069;-82
2022/08/20 02:33:50;;;;;;;13.18;2.63;;;;;;;15.05;94.49;100142.81;5009649;28;20031;-81
2022/08/20 02:36:17;;;;;;;15.60;2.47;;;;;;;15.04;94.55;100141.16;4979875;28;20037;-81
2022/08/20 02:38:45;;;;;;;14.02;2.40;;;;;;;15.03;94.22;100128.03;5007021;28;20491;-81
2022/08/20 02:41:11;;;;;;;10.23;2.80;;;;;;;15.00;93.76;100119.41;5000463;28;20042;-81
2022/08/20 02:43:37;;;;;;;13.13;2.30;;;;;;;14.99;93.92;100127.56;4992546;28;20391;-81
2022/08/20 02:46:04;;;;;;;17.00;2.92;;;;;;;14.97;93.55;100134.91;4980135;28;20033;-80
2022/08/20 02:48:32;;;;;;;15.40;2.67;;;;;;;14.94;93.52;100135.28;5010850;28;20026;-84
2022/08/20 02:51:01;;;;;;;10.90;2.90;;;;;;;14.92;93.37;100137.28;4980902;28;20040;-81
2022/08/20 02:53:30;;;;;;;13.15;2.33;;;;;;;14.91;93.28;100130.31;4996616;28;20073;-79
2022/08/20 02:55:56;;;;;;;13.27;2.30;;;;;;;14.84;93.10;100125.69;4982594;28;20039;-81
2022/08/20 02:58:22;;;;;;;14.55;3.15;;;;;;;14.81;93.22;100127.91;4980163;28;20034;-80
2022/08/20 03:00:49;;;;;;;13.90;2.38;;;;;;;14.76;93.23;100120.44;4976530;28;20492;-81
2022/08/20 03:03:19;;;;;;;16.02;2.83;;;;;;;14.73;93.15;100126.94;4961676;28;20034;-81
2022/08/20 03:05:44;;;;;;;13.07;3.22;;;;;;;14.71;93.53;100122.81;5021206;28;20145;-82
2022/08/20 03:08:12;;;;;;;10.32;2.08;;;;;;;14.71;93.37;100118.31;5015737;28;20112;-81
2022/08/20 03:10:40;;;;;;;15.50;2.75;;;;;;;14.68;93.60;100115.19;4978772;28;20400;-81
2022/08/20 03:13:10;;;;;;;12.18;2.33;;;;;;;14.66;93.75;100123.34;4993875;28;20031;-79
2022/08/20 03:15:35;;;;;;;14.43;2.28;;;;;;;14.66;94.06;100120.69;5027268;28;20037;-80
2022/08/20 03:18:02;;;;;;;14.68;2.67;;;;;;;14.68;94.01;100123.16;4993320;28;20496;-81
2022/08/20 03:20:28;;;;;;;14.20;2.50;;;;;;;14.68;94.00;100121.34;5011610;28;20511;-81
2022/08/20 03:22:55;;;;;;;18.60;2.97;;;;;;;14.70;94.11;100115.84;4981741;28;20484;-83
2022/08/20 03:25:21;;;;;;;12.70;2.67;;;;;;;14.72;93.87;100135.09;4991267;28;20038;-80
2022/08/20 03:27:48;;;;;;;16.30;2.58;;;;;;;14.75;94.21;100132.91;5001399;28;20037;-84
2022/08/20 03:30:15;;;;;;;13.32;3.08;;;;;;;14.78;94.23;100131.72;4993379;28;20045;-80
2022/08/20 03:32:41;;;;;;;16.25;3.72;;;;;;;14.80;94.03;100132.41;5008066;28;20034;-81
2022/08/20 03:35:09;;;;;;;16.15;2.88;;;;;;;14.83;93.78;100139.19;5016679;28;20026;-81
2022/08/20 03:37:36;;;;;;;12.57;2.30;;;;;;;14.88;93.66;100135.00;5013857;28;20100;-82
2022/08/20 03:40:05;;;;;;;15.82;2.70;;;;;;;14.92;93.38;100137.28;4993171;28;20050;-82
2022/08/20 03:42:31;;;;;;;15.50;2.70;;;;;;;14.92;93.21;100129.31;5017243;28;20034;-80
2022/08/20 03:44:57;;;;;;;9.20;2.10;;;;;;;14.91;93.29;100125.00;5016328;28;20088;-81
2022/08/20 03:47:22;;;;;;;18.70;3.83;;;;;;;14.90;93.33;100129.47;5016470;28;20242;-82
2022/08/20 03:49:48;;;;;;;13.15;2.22;;;;;;;14.88;93.16;100129.66;4986324;28;20041;-80
2022/08/20 03:52:16;;;;;;;13.82;2.53;;;;;;;14.83;93.44;100115.22;4998868;28;20113;-82
2022/08/20 03:54:44;;;;;;;11.18;2.20;;;;;;;14.81;93.32;100127.91;4998693;28;20031;-81
2022/08/20 03:57:15;;;;;;;11.77;2.70;;;;;;;14.79;93.33;100121.91;5011784;28;20463;-81
2022/08/20 03:59:43;;;;;;;11.05;2.67;;;;;;;14.74;93.39;100123.28;5002465;28;20485;-85
2022/08/20 04:02:11;;;;;;;15.65;3.13;;;;;;;14.74;93.32;100109.13;5014184;28;20033;-84
2022/08/20 04:04:39;;;;;;;14.85;2.78;;;;;;;14.73;93.26;100115.47;4978946;28;20053;-81
2022/08/20 04:07:24;;;;;;;12.23;2.70;;;;;;;14.68;93.38;100110.69;4992612;28;20385;-82
2022/08/20 04:09:54;;;;;;;12.52;3.22;;;;;;;14.66;93.61;100114.53;5010787;28;20108;-83
2022/08/20 04:12:23;;;;;;;11.60;2.50;;;;;;;14.65;93.64;100111.06;5006830;28;20037;-80
2022/08/20 04:14:49;;;;;;;11.23;2.78;;;;;;;14.61;93.87;100117.72;4986660;28;20096;-81
2022/08/20 04:17:16;;;;;;;13.10;3.08;;;;;;;14.61;94.15;100120.38;5012353;28;20095;-84
2022/08/20 04:19:43;;;;;;;19.35;2.85;;;;;;;14.61;94.09;100123.03;5011307;28;20459;-80
2022/08/20 04:22:10;;;;;;;12.80;2.88;;;;;;;14.63;94.12;100129.03;4985725;28;20036;-81
2022/08/20 04:24:36;;;;;;;10.40;2.60;;;;;;;14.62;94.06;100122.88;4973201;28;20069;-83
2022/08/20 04:27:03;;;;;;;15.85;2.65;;;;;;;14.62;94.20;100124.72;5007272;28;20034;-80
2022/08/20 04:29:31;;;;;;;17.25;3.15;;;;;;;14.65;94.36;100127.03;4993783;28;20073;-84
2022/08/20 04:31:57;;;;;;;12.75;2.70;;;;;;;14.68;94.44;100129.31;5007311;28;20037;-79
2022/08/20 04:34:23;;;;;;;15.48;2.78;;;;;;;14.68;94.42;100124.00;5008528;28;20384;-83
2022/08/20 04:36:48;;;;;;;16.27;3.05;;;;;;;14.69;94.43;100124.81;5017050;28;20029;-80
2022/08/20 04:39:15;;;;;;;13.82;3.30;;;;;;;14.70;94.45;100123.81;4977824;28;20551;-80
2022/08/20 04:41:41;;;;;;;12.60;2.75;;;;;;;14.73;94.12;100136.75;4980398;28;20061;-80
2022/08/20 04:44:07;;;;;;;14.23;2.53;;;;;;;14.72;94.24;100135.09;5018658;28;20053;-82
2022/08/20 04:46:33;;;;;;;13.27;3.35;;;;;;;14.73;94.32;100144.75;5013080;28;20068;-85
2022/08/20 04:49:02;;;;;;;17.13;3.15;;;;;;;14.71;94.12;100136.09;4973855;28;20093;-86
2022/08/20 04:51:27;;;;;;;22.45;3.35;;;;;;;14.70;94.15;100137.94;5002589;28;20085;-80
2022/08/20 04:53:56;;;;;;;17.50;3.42;;;;;;;14.66;94.12;100141.97;5026232;28;20384;-84
2022/08/20 04:56:24;;;;;;;16.67;3.00;;;;;;;14.70;94.17;100147.75;5000362;28;20215;-85
2022/08/20 04:58:52;;;;;;;15.90;3.22;;;;;;;14.68;94.02;100147.09;5008513;28;20401;-82
2022/08/20 05:01:18;;;;;;;17.48;3.47;;;;;;;14.68;94.06;100147.94;5015295;28;20042;-84
2022/08/20 05:03:46;;;;;;;20.17;3.90;;;;;;;14.69;93.99;100156.72;4994925;28;20107;-82
2022/08/20 05:06:12;;;;;;;12.90;3.03;;;;;;;14.71;94.01;100144.94;4993465;28;20492;-79
2022/08/20 05:08:39;;;;;;;16.90;3.60;;;;;;;14.72;94.03;100146.56;5011702;28;20041;-80
2022/08/20 05:11:06;;;;;;;14.60;3.05;;;;;;;14.75;94.01;100148.88;5014804;28;20037;-82
2022/08/20 05:13:32;;;;;;;23.70;3.20;;;;;;;14.78;93.97;100152.19;5021899;28;20113;-81
2022/08/20 05:16:00;;;;;;;15.65;2.60;;;;;;;14.76;94.17;100147.84;5006981;28;20121;-81
2022/08/20 05:18:27;;;;;;;22.02;3.72;;;;;;;14.76;94.24;100150.50;4999027;28;20113;-79
2022/08/20 05:20:53;;;;;;;14.88;3.33;;;;;;;14.79;94.29;100153.81;5010695;28;20104;-83
2022/08/20 05:23:19;;;;;;;17.83;3.17;;;;;;;14.78;94.14;100158.31;5012311;28;20511;-81
2022/08/20 05:25:50;;;;;;;11.50;2.65;;;;;;;14.81;94.13;100157.97;4997737;28;20038;-83
2022/08/20 05:28:20;;;;;;;15.30;3.08;;;;;;;14.82;94.09;100162.31;4982499;28;20038;-81
2022/08/20 05:30:47;;;;;;;17.50;3.10;;;;;;;14.86;94.18;100162.75;5003621;28;20068;-83
2022/08/20 05:33:16;;;;;;;15.77;2.88;;;;;;;14.86;93.94;100152.13;4979703;28;20496;-80
2022/08/20 05:35:43;;;;;;;13.80;3.13;;;;;;;14.86;94.27;100154.78;4997885;28;20056;-81
2022/08/20 05:38:12;;;;;;;11.65;3.00;;;;;;;14.85;94.20;100155.81;5019240;28;20033;-83
2022/08/20 05:40:39;;;;;;;14.63;3.38;;;;;;;14.80;94.21;100158.16;4993679;28;22056;-83
2022/08/20 05:43:05;;;;;;;21.90;3.28;;;;;;;14.79;94.20;100152.03;4979158;28;20194;-80
2022/08/20 05:45:35;;;;;;;16.30;3.15;;;;;;;14.79;94.09;100162.69;5017593;28;20049;-83
2022/08/20 05:48:06;;;;;;;16.85;3.25;;;;;;;14.78;94.16;100157.50;4998833;28;20121;-82
2022/08/20 05:50:33;;;;;;;14.55;2.83;;;;;;;14.76;94.00;100160.34;4993933;28;20481;-82
2022/08/20 05:53:00;;;;;;;19.65;3.13;;;;;;;14.71;94.16;100163.53;4993564;28;20388;-81
2022/08/20 05:55:27;;;;;;;14.18;2.92;;;;;;;14.71;94.07;100160.88;5009535;28;20026;-81
2022/08/20 05:57:57;;;;;;;14.20;3.03;;;;;;;14.72;93.88;100161.69;5009387;28;20068;-81
2022/08/20 06:00:22;;;;;;;10.85;2.50;;;;;;;14.73;94.10;100168.69;5010182;28;20056;-83
2022/08/20 06:05:33;;;;;;;13.65;2.58;;;;;;;14.74;94.21;100165.00;5022688;28;20112;-84
2022/08/20 06:07:59;;;;;;;15.18;3.30;;;;;;;14.78;94.01;100165.50;4966762;28;20408;-83
2022/08/20 06:10:25;;;;;;;15.52;3.25;;;;;;;14.78;93.89;100165.50;5003471;28;20038;-84
2022/08/20 06:12:52;;;;;;;18.67;3.13;;;;;;;14.78;93.51;100158.31;5013255;28;20102;-81
2022/08/20 06:15:19;;;;;;;18.70;3.65;;;;;;;14.80;93.55;100163.50;5014155;28;20022;-85
2022/08/20 06:17:45;;;;;;;15.05;2.90;;;;;;;14.80;93.60;100169.66;5001278;28;20387;-82
2022/08/20 06:20:10;;;;;;;17.10;3.25;;;;;;;14.77;93.59;100164.66;4976828;28;20038;-81
2022/08/20 06:22:36;;;;;;;16.00;3.90;;;;;;;14.79;93.67;100170.66;4977254;28;20040;-83
2022/08/20 06:25:04;;;;;;;14.48;3.13;;;;;;;14.78;93.87;100166.28;4958322;28;20037;-81
2022/08/20 06:27:30;;;;;;;17.00;3.40;;;;;;;14.80;93.81;100176.78;5010373;28;20072;-83
2022/08/20 06:29:55;;;;;;;14.73;2.65;;;;;;;14.81;93.66;100170.47;4961511;28;20070;-83
2022/08/20 06:32:23;;;;;;;20.10;3.17;;;;;;;14.80;93.57;100166.97;4999398;28;20058;-82
2022/08/20 06:34:50;;;;;;;15.98;3.70;;;;;;;14.81;93.51;100159.84;4997441;28;20121;-84
2022/08/20 06:37:19;;;;;;;18.25;3.58;;;;;;;14.79;93.54;100159.16;5003420;28;20034;-85
2022/08/20 06:39:45;;;;;;;14.38;2.85;;;;;;;14.76;93.47;100171.78;5026997;28;20058;-82
2022/08/20 06:42:12;;;;;;;14.82;2.70;;;;;;;14.76;93.27;100168.31;5013877;28;20488;-82
2022/08/20 06:44:38;;;;;;;10.52;2.92;;;;;;;14.79;93.42;100169.78;4994202;28;20044;-85
2022/08/20 06:47:04;;;;;;;16.50;2.92;;;;;;;14.81;93.45;100173.94;4961688;28;20117;-84
2022/08/20 06:49:32;;;;;;;17.15;3.33;;;;;;;14.86;93.14;100168.09;5008272;28;20523;-80
2022/08/20 06:51:58;;;;;;;11.98;3.20;;;;;;;14.89;93.17;100167.75;5025368;28;20495;-82
2022/08/20 06:54:24;;;;;;;18.15;3.17;;;;;;;14.92;93.04;100164.75;5001584;28;20040;-83
2022/08/20 06:56:52;;;;;;;14.73;3.00;;;;;;;14.95;92.93;100167.03;4995905;28;20026;-83
2022/08/20 06:59:18;;;;;;;19.60;3.35;;;;;;;14.98;92.67;100164.00;5010486;28;20119;-81
2022/08/20 07:01:44;;;;;;;18.10;3.05;;;;;;;15.00;92.63;100161.16;5002514;28;20029;-83
2022/08/20 07:04:10;;;;;;;17.90;3.88;;;;;;;15.04;92.57;100156.28;5009791;28;20115;-83
2022/08/20 07:06:36;;;;;;;15.55;3.10;;;;;;;15.07;92.00;100162.09;5001800;28;20492;-80
2022/08/20 07:09:02;;;;;;;16.52;3.20;;;;;;;15.12;92.13;100164.19;4988806;28;20089;-84
2022/08/20 07:11:28;;;;;;;17.77;3.40;;;;;;;15.16;91.92;100162.00;5004695;28;20049;-81
2022/08/20 07:13:55;;;;;;;15.32;2.78;;;;;;;15.19;91.91;100157.16;5010505;28;20046;-84
2022/08/20 07:16:21;;;;;;;14.90;2.90;;;;;;;15.22;91.77;100159.47;4992722;28;20040;-83
2022/08/20 07:18:46;;;;;;;15.30;3.45;;;;;;;15.28;91.85;100165.88;4991539;28;20030;-81
2022/08/20 07:21:12;;;;;;;22.30;2.97;;;;;;;15.34;91.53;100154.50;4995937;28;20378;-82
2022/08/20 07:23:38;;;;;;;16.77;3.33;;;;;;;15.44;91.38;100164.88;5008675;28;20033;-84
2022/08/20 07:26:04;;;;;;;13.27;2.85;;;;;;;15.52;91.34;100157.78;4986572;28;20034;-82
2022/08/20 07:28:31;;;;;;;12.63;2.80;;;;;;;15.66;91.03;100164.97;4960459;28;20030;-83
2022/08/20 07:33:42;;;;;;;20.55;4.68;;;;;;;15.82;90.51;100157.78;5001892;28;20113;-82
2022/08/20 07:36:09;;;;;;;16.17;3.10;;;;;;;15.91;90.34;100145.19;4959574;28;21335;-82
2022/08/20 07:38:36;;;;;;;16.25;2.97;;;;;;;16.09;90.08;100145.63;4998512;28;20045;-80
2022/08/20 07:41:13;;;;;;;19.02;3.08;;;;;;;16.32;89.62;100146.47;5007618;28;20508;-81
2022/08/20 07:43:40;;;;;;;19.35;3.63;;;;;;;16.55;89.15;100153.44;4998370;28;20064;-83
2022/08/20 07:46:08;;;;;;;13.25;3.15;;;;;;;16.74;87.98;100149.28;4991231;28;20045;-84
2022/08/20 07:48:38;;;;;;;15.77;3.13;;;;;;;16.87;86.98;100151.25;4984820;28;20039;-82
2022/08/20 07:51:05;;;;;;;10.75;2.47;;;;;;;16.88;86.12;100152.94;5002760;28;20046;-81
2022/08/20 07:53:33;;;;;;;14.05;2.45;;;;;;;16.92;85.58;100148.00;4988499;28;20053;-81
2022/08/20 07:56:00;;;;;;;16.73;2.90;;;;;;;16.92;85.33;100153.34;4999676;28;20038;-80
2022/08/20 07:58:26;;;;;;;14.77;3.25;;;;;;;16.83;84.85;100148.13;5009160;28;20033;-81
2022/08/20 08:00:51;;;;;;;15.45;3.15;;;;;;;16.86;84.73;100160.28;5021878;28;20030;-81
2022/08/20 08:03:18;;;;;;;16.85;3.20;;;;;;;16.92;84.52;100158.69;4991840;28;20030;-81
2022/08/20 08:05:46;;;;;;;15.52;3.17;;;;;;;16.97;83.96;100158.94;4987473;28;20038;-81
2022/08/20 08:08:18;;;;;;;9.88;2.10;;;;;;;16.95;83.10;100147.59;4987895;28;20045;-79
2022/08/20 08:10:47;;;;;;;17.52;3.10;;;;;;;16.93;83.03;100153.16;4978366;28;20037;-80
2022/08/20 08:13:31;;;;;;;13.43;3.28;;;;;;;16.94;83.00;100152.16;5015987;28;20038;-80
2022/08/20 08:16:00;;;;;;;14.10;2.97;;;;;;;16.87;82.18;100151.25;5012527;28;20487;-80
2022/08/20 08:18:45;;;;;;;16.23;3.28;;;;;;;16.84;82.37;100170.31;5016529;28;20084;-79
2022/08/20 08:21:11;;;;;;;9.93;2.55;;;;;;;16.72;82.67;100162.84;4992884;28;20454;-82
2022/08/20 08:23:43;;;;;;;20.17;3.58;;;;;;;16.64;82.44;100163.00;5011197;28;20061;-81
2022/08/20 08:26:14;;;;;;;14.25;2.80;;;;;;;16.55;82.40;100164.09;5014354;28;20187;-80
2022/08/20 08:28:42;;;;;;;11.00;2.45;;;;;;;16.47;82.50;100165.91;4980555;28;20072;-82
2022/08/20 08:31:08;;;;;;;14.43;3.05;;;;;;;16.45;82.58;100164.44;4994109;28;20053;-79
2022/08/20 08:33:34;;;;;;;17.30;3.45;;;;;;;16.45;82.71;100165.25;5002087;28;20034;-80
2022/08/20 08:36:10;;;;;;;10.18;2.97;;;;;;;16.49;82.48;100165.72;4986692;28;20106;-82
2022/08/20 08:38:39;;;;;;;13.32;2.72;;;;;;;16.53;82.78;100166.97;4994966;28;20061;-81
2022/08/20 08:41:32;;;;;;;13.70;3.15;;;;;;;16.63;82.26;100165.84;5011612;28;20034;-80
2022/08/20 08:44:08;;;;;;;17.55;3.17;;;;;;;16.73;81.86;100158.34;5010779;28;20113;-81
2022/08/20 08:47:17;;;;;;;15.07;2.92;;;;;;;16.81;81.42;100163.53;4992117;28;20049;-81
2022/08/20 08:49:45;;;;;;;16.73;3.22;;;;;;;16.88;81.49;100165.44;5013190;28;20061;-79
2022/08/20 08:52:15;;;;;;;11.48;3.40;;;;;;;16.89;81.34;100154.56;4993583;28;20030;-80
2022/08/20 08:54:46;;;;;;;15.60;3.38;;;;;;;16.88;81.17;100154.75;4972746;28;20511;-81
2022/08/20 08:57:12;;;;;;;11.70;2.53;;;;;;;16.85;81.27;100172.81;4962043;28;20485;-80
2022/08/20 08:59:40;;;;;;;13.60;2.75;;;;;;;16.87;81.17;100167.28;5029488;28;20061;-81
2022/08/20 09:02:06;;;;;;;9.48;2.30;;;;;;;16.87;80.60;100161.94;4979129;28;20400;-81
2022/08/20 09:04:36;;;;;;;14.32;3.10;;;;;;;16.90;80.04;100158.88;4997023;28;20033;-81
2022/08/20 09:07:06;;;;;;;14.18;2.10;;;;;;;16.89;79.93;100149.22;4984158;28;20056;-79
2022/08/20 09:09:36;;;;;;;13.75;3.00;;;;;;;17.00;79.71;100150.53;5012097;28;20045;-81
2022/08/20 09:12:07;;;;;;;20.63;3.70;;;;;;;17.19;79.31;100153.56;5007832;28;20056;-81
2022/08/20 09:14:33;;;;;;;12.43;2.65;;;;;;;17.29;78.35;100142.53;5008397;28;20102;-81
2022/08/20 09:16:58;;;;;;;15.85;3.58;;;;;;;17.29;77.77;100150.53;4988293;28;20057;-82
2022/08/20 09:19:24;;;;;;;11.88;3.10;;;;;;;17.34;77.65;100148.13;4927507;28;20034;-80
2022/08/20 09:21:50;;;;;;;12.40;2.10;;;;;;;17.47;77.59;100147.38;4987691;28;20381;-80
2022/08/20 09:24:16;;;;;;;11.07;2.75;;;;;;;17.52;76.63;100128.88;5014239;28;20030;-81
2022/08/20 09:26:42;;;;;;;10.63;2.15;;;;;;;17.53;75.99;100141.25;4966057;28;20062;-79
2022/08/20 09:29:08;;;;;;;8.90;2.80;;;;;;;17.61;75.11;100149.06;5002787;28;20044;-80
2022/08/20 09:31:35;;;;;;;8.70;2.45;;;;;;;17.69;74.92;100140.06;4988102;28;20097;-81
2022/08/20 09:34:00;;;;;;;11.00;2.60;;;;;;;17.87;74.67;100146.69;5003075;28;20037;-79
2022/08/20 09:36:26;;;;;;;10.93;2.75;;;;;;;18.01;73.87;100134.22;5011862;28;20034;-80
2022/08/20 09:38:53;;;;;;;11.50;2.40;;;;;;;18.15;72.95;100140.44;5023805;28;20452;-79
2022/08/20 09:41:18;;;;;;;12.70;2.35;;;;;;;18.18;72.44;100139.22;4989873;28;20404;-81
2022/08/20 09:43:44;;;;;;;16.52;4.15;;;;;;;18.21;72.16;100142.31;4966289;28;20026;-80
2022/08/20 09:46:10;;;;;;;12.32;2.40;;;;;;;18.28;71.70;100141.50;4995990;28;20488;-80
2022/08/20 09:48:36;;;;;;;8.02;2.53;;;;;;;18.29;71.07;100138.63;4978950;28;20033;-80
2022/08/20 09:51:02;;;;;;;15.52;3.25;;;;;;;18.32;70.71;100132.03;5001781;28;20053;-80
2022/08/20 09:53:29;;;;;;;7.70;2.50;;;;;;;18.36;70.12;100141.31;4992341;28;20030;-80
2022/08/20 09:55:55;;;;;;;10.15;2.67;;;;;;;18.39;69.57;100143.59;4986794;28;20035;-80
2022/08/20 09:58:31;;;;;;;8.77;2.10;;;;;;;18.49;69.83;100131.66;5005709;28;20030;-80
2022/08/20 10:01:09;;;;;;;9.65;2.20;;;;;;;18.53;69.13;100143.59;4987556;28;20042;-79
2022/08/20 10:03:35;;;;;;;8.80;2.08;;;;;;;18.45;69.56;100132.06;4997336;28;20076;-79
2022/08/20 10:06:01;;;;;;;10.73;2.08;;;;;;;18.36;69.24;100135.97;4986716;28;20050;-82
2022/08/20 10:08:26;;;;;;;15.40;2.08;;;;;;;18.20;69.10;100129.94;4967574;28;20112;-79
2022/08/20 10:10:52;;;;;;;7.97;2.05;;;;;;;18.10;69.25;100134.84;5009701;28;20041;-79
2022/08/20 10:13:18;;;;;;;9.45;2.03;;;;;;;18.05;69.69;100126.59;5013012;28;20034;-81
2022/08/20 10:15:44;;;;;;;11.32;2.33;;;;;;;18.10;69.21;100114.28;4991292;28;20026;-79
2022/08/20 10:18:10;;;;;;;11.93;2.22;;;;;;;18.18;68.79;100123.16;5006040;28;20488;-80
2022/08/20 10:20:35;;;;;;;6.20;1.90;;;;;;;18.20;68.09;100119.25;4985698;28;20041;-79
2022/08/20 10:23:02;;;;;;;10.75;2.28;;;;;;;18.34;67.82;100121.97;5007830;28;20030;-80
2022/08/20 10:25:28;;;;;;;10.85;2.20;;;;;;;18.47;67.56;100121.16;5027948;28;20064;-80
2022/08/20 10:27:55;;;;;;;12.02;2.70;;;;;;;18.60;67.78;100113.13;4978109;28;20078;-79
2022/08/20 10:30:21;;;;;;;11.50;2.35;;;;;;;18.67;67.92;100106.94;5011424;28;20500;-81
2022/08/20 10:32:47;;;;;;;8.65;2.33;;;;;;;18.80;68.02;100106.09;4994136;28;20092;-81
2022/08/20 10:35:13;;;;;;;12.00;2.55;;;;;;;18.97;67.50;100109.16;4986462;28;20126;-79
2022/08/20 10:37:39;;;;;;;7.43;2.50;;;;;;;19.19;67.05;100106.28;4972829;28;20116;-80
2022/08/20 10:40:06;;;;;;;18.33;4.72;;;;;;;19.30;66.08;100110.19;5002026;28;20038;-79
2022/08/20 10:42:31;;;;;;;9.10;2.22;;;;;;;19.37;65.63;100110.13;5013895;28;20033;-81
2022/08/20 10:44:57;;;;;;;15.00;2.70;;;;;;;19.45;65.65;100102.69;5002714;28;20046;-80
2022/08/20 10:47:26;;;;;;;10.60;2.40;;;;;;;19.46;65.00;100098.16;5006601;28;20515;-81
2022/08/20 10:49:55;;;;;;;9.20;2.15;;;;;;;19.42;65.24;100095.09;4951744;28;20030;-79
2022/08/20 10:52:21;;;;;;;9.23;1.95;;;;;;;19.54;65.12;100094.44;4992153;28;20030;-79
2022/08/20 10:54:48;;;;;;;10.13;2.15;;;;;;;19.72;65.02;100091.03;4988096;28;20033;-80
2022/08/20 10:57:22;;;;;;;7.68;2.03;;;;;;;19.87;64.09;100080.03;5027736;28;20038;-79
2022/08/20 10:59:51;;;;;;;9.40;2.00;;;;;;;19.89;63.60;100067.22;5011873;28;20048;-80
2022/08/20 11:02:22;;;;;;;10.05;1.73;;;;;;;19.81;62.47;100079.00;4995816;28;20041;-80
2022/08/20 11:04:49;;;;;;;7.07;2.25;;;;;;;19.74;62.16;100074.72;4995111;28;20034;-79
2022/08/20 11:07:28;;;;;;;5.78;1.65;;;;;;;19.73;61.01;100065.03;4995328;28;20108;-80
2022/08/20 11:09:54;;;;;;;7.40;1.85;;;;;;;19.85;61.30;100076.72;4998603;28;20038;-80
2022/08/20 11:12:20;;;;;;;17.33;2.50;;;;;;;20.02;60.48;100074.38;4995913;28;20042;-79
2022/08/20 11:14:48;;;;;;;8.90;2.38;;;;;;;20.05;59.61;100086.56;4989186;28;20023;-79
2022/08/20 11:17:35;;;;;;;6.25;2.10;;;;;;;19.96;57.16;100077.91;5004659;28;20038;-80
2022/08/20 11:20:04;;;;;;;7.80;2.10;;;;;;;20.01;59.37;100066.53;4962789;28;20034;-81
2022/08/20 11:22:29;;;;;;;8.18;1.60;;;;;;;20.18;59.78;100070.34;4987241;28;20077;-80
2022/08/20 11:24:55;;;;;;;7.25;1.60;;;;;;;20.25;59.33;100072.16;4990147;28;20054;-80
2022/08/20 11:27:31;;;;;;;9.05;2.15;;;;;;;20.33;58.48;100059.31;4984484;28;20038;-82
2022/08/20 11:29:58;;;;;;;9.45;2.22;;;;;;;20.48;58.53;100068.88;5020503;28;20038;-81